Austerlitz, New York
Current Conditions -  °F | °C
As of 11:54 AM on Thursday 18 Dec 2014 (Local Time) from KPSF Reporting Station
Overcast Overcast  
Wind Chill: -5°   Ceiling: 1700
Heat Index: -1°   Visibility: 10mi
Dew Point: -3°   Wind: 10mph
Humidity: 82%   Direction: 310°NW
Pressure: 29.84"   Gusts: NA
Location:  42.31°N, 73.47°W
Report Text: KPSF 181654Z AUTO 31009KT 10SM OVC017 M01/M03 A2984 RMK AO2 PK WND 29028/1640 SLP112 T10061033
Loading
Personal Weather Stations






























Interactive Weather Map New forecast layout! Learn more

10-Day Weather Forecast

Advertisements
Track Severe Weather on mobile